createdAt,value
2018-09-03T00:01:55.164Z,94749.61
2018-09-03T00:04:24.023Z,94751.13
2018-09-03T00:06:52.802Z,94748.08
2018-09-03T00:09:21.695Z,94749.57
2018-09-03T00:11:50.548Z,94759.60
2018-09-03T00:14:19.247Z,94751.13
2018-09-03T00:16:48.046Z,94756.19
2018-09-03T00:19:16.796Z,94744.39
2018-09-03T00:21:45.670Z,94744.59
2018-09-03T00:24:14.394Z,94742.09
2018-09-03T00:26:43.144Z,94741.76
2018-09-03T00:29:11.952Z,94740.23
2018-09-03T00:31:45.837Z,94746.80
2018-09-03T00:34:19.672Z,94740.63
2018-09-03T00:36:53.558Z,94746.99
2018-09-03T00:39:27.492Z,94741.66
2018-09-03T00:42:01.546Z,94734.91
2018-09-03T00:44:35.478Z,94728.85
2018-09-03T00:47:08.462Z,94732.36
2018-09-03T00:49:37.243Z,94731.83
2018-09-03T00:52:06.052Z,94723.45
2018-09-03T00:54:36.005Z,94721.93
2018-09-03T00:57:04.886Z,94718.42
2018-09-03T00:59:33.743Z,94728.11
2018-09-03T01:02:02.557Z,94725.38
2018-09-03T01:04:31.383Z,94730.17
2018-09-03T01:07:00.134Z,94729.43
2018-09-03T01:09:28.866Z,94734.72
2018-09-03T01:11:57.559Z,94735.80
2018-09-03T01:14:26.326Z,94734.33
2018-09-03T01:16:55.130Z,94740.21
2018-09-03T01:19:23.940Z,94734.23
2018-09-03T01:21:52.826Z,94741.72
2018-09-03T01:24:21.711Z,94744.37
2018-09-03T01:26:50.604Z,94744.31
2018-09-03T01:29:19.432Z,94741.27
2018-09-03T01:31:48.255Z,94741.77
2018-09-03T01:34:16.995Z,94738.84
2018-09-03T01:36:45.739Z,94740.21
2018-09-03T01:39:14.471Z,94736.48
2018-09-03T01:41:43.264Z,94742.11
2018-09-03T01:44:12.062Z,94737.06
2018-09-03T01:46:40.758Z,94737.31
2018-09-03T01:49:09.551Z,94735.89
2018-09-03T01:51:38.280Z,94733.25
2018-09-03T01:54:07.129Z,94724.00
2018-09-03T01:56:35.827Z,94725.91
2018-09-03T01:59:04.686Z,94721.31
2018-09-03T02:01:33.456Z,94721.84
2018-09-03T02:04:02.284Z,94718.17
2018-09-03T02:06:31.042Z,94711.57
2018-09-03T02:08:59.801Z,94711.83
2018-09-03T02:11:28.546Z,94711.97
2018-09-03T02:13:57.275Z,94712.70
2018-09-03T02:16:26.005Z,94717.65
2018-09-03T02:18:54.800Z,94712.77
2018-09-03T02:21:23.603Z,94708.41
2018-09-03T02:23:52.425Z,94708.11
2018-09-03T02:26:21.214Z,94704.20
2018-09-03T02:28:50.020Z,94701.52
2018-09-03T02:31:19.116Z,94696.36
2018-09-03T02:33:47.898Z,94700.74
2018-09-03T02:36:16.683Z,94699.11
2018-09-03T02:38:45.679Z,94697.31
2018-09-03T02:41:14.506Z,94693.34
2018-09-03T02:43:43.495Z,94689.67
2018-09-03T02:46:12.362Z,94694.14
2018-09-03T02:48:41.209Z,94690.13
2018-09-03T02:51:09.947Z,94682.78
2018-09-03T02:53:38.887Z,94688.67
2018-09-03T02:56:07.699Z,94690.84
2018-09-03T02:58:36.450Z,94689.06
2018-09-03T03:01:05.264Z,94684.62
2018-09-03T03:03:34.078Z,94683.11
2018-09-03T03:06:02.835Z,94680.42
2018-09-03T03:08:31.681Z,94683.64
2018-09-03T03:11:00.491Z,94687.91
2018-09-03T03:13:29.237Z,94679.58
2018-09-03T03:15:57.977Z,94684.81
2018-09-03T03:18:26.744Z,94674.25
2018-09-03T03:20:55.679Z,94670.19
2018-09-03T03:23:24.410Z,94666.13
2018-09-03T03:25:53.148Z,94666.37
2018-09-03T03:28:21.876Z,94667.59
2018-09-03T03:30:50.648Z,94670.00
2018-09-03T03:33:19.440Z,94667.23
2018-09-03T03:35:48.147Z,94666.27
2018-09-03T03:38:16.923Z,94667.23
2018-09-03T03:40:45.718Z,94665.27
2018-09-03T03:43:14.496Z,94668.16
2018-09-03T03:45:43.256Z,94665.27
2018-09-03T03:48:12.040Z,94666.55
2018-09-03T03:50:40.825Z,94666.36
2018-09-03T03:53:09.644Z,94661.84
2018-09-03T03:55:38.388Z,94668.95
2018-09-03T03:58:07.292Z,94672.91
2018-09-03T04:00:36.047Z,94673.25
2018-09-03T04:03:04.824Z,94680.28
2018-09-03T04:05:33.547Z,94673.92
2018-09-03T04:08:02.327Z,94669.00
2018-09-03T04:10:31.057Z,94662.30
2018-09-03T04:13:04.191Z,94667.58
2018-09-03T04:15:33.351Z,94667.41
2018-09-03T04:18:02.874Z,94664.53
2018-09-03T04:20:31.839Z,94655.34
2018-09-03T04:23:00.606Z,94648.93
2018-09-03T04:25:29.353Z,94650.30
2018-09-03T04:27:58.192Z,94651.95
2018-09-03T04:30:26.992Z,94655.03
2018-09-03T04:32:56.203Z,94654.58
2018-09-03T04:35:25.064Z,94643.58
2018-09-03T04:37:53.819Z,94646.99
2018-09-03T04:40:22.719Z,94643.73
2018-09-03T04:42:51.442Z,94641.68
2018-09-03T04:45:21.062Z,94641.92
2018-09-03T04:47:49.784Z,94641.70
2018-09-03T04:50:18.718Z,94643.03
2018-09-03T04:52:47.564Z,94639.06
2018-09-03T04:55:16.313Z,94643.13
2018-09-03T04:57:45.012Z,94638.53
2018-09-03T05:00:15.234Z,94635.53
2018-09-03T05:02:44.540Z,94635.78
2018-09-03T05:05:13.325Z,94636.66
2018-09-03T05:07:42.243Z,94639.34
2018-09-03T05:10:11.211Z,94635.48
2018-09-03T05:12:40.107Z,94627.48
2018-09-03T05:15:08.947Z,94632.84
2018-09-03T05:17:37.715Z,94627.16
2018-09-03T05:20:06.770Z,94630.50
2018-09-03T05:22:35.593Z,94639.05
2018-09-03T05:25:04.383Z,94644.77
2018-09-03T05:27:33.140Z,94643.81
2018-09-03T05:30:02.035Z,94643.98
2018-09-03T05:32:30.765Z,94647.72
2018-09-03T05:34:59.535Z,94659.59
2018-09-03T05:37:28.275Z,94655.45
2018-09-03T05:39:56.978Z,94653.41
2018-09-03T05:42:25.821Z,94652.58
2018-09-03T05:44:54.570Z,94649.97
2018-09-03T05:47:23.276Z,94652.30
2018-09-03T05:49:52.188Z,94652.73
2018-09-03T05:52:20.966Z,94654.28
2018-09-03T05:54:49.971Z,94656.75
2018-09-03T05:57:18.751Z,94654.02
2018-09-03T05:59:47.511Z,94663.20
2018-09-03T06:02:16.492Z,94665.36
2018-09-03T06:04:45.472Z,94660.91
2018-09-03T06:07:14.371Z,94657.98
2018-09-03T06:09:43.178Z,94656.70
2018-09-03T06:12:12.095Z,94657.53
2018-09-03T06:14:40.818Z,94664.96
2018-09-03T06:17:09.683Z,94669.47
2018-09-03T06:19:38.498Z,94668.77
2018-09-03T06:22:07.247Z,94669.59
2018-09-03T06:24:36.022Z,94668.83
2018-09-03T06:27:04.802Z,94660.30
2018-09-03T06:29:33.551Z,94664.56
2018-09-03T06:35:33.625Z,94652.80
2018-09-03T06:38:02.479Z,94657.65
2018-09-03T06:40:31.605Z,94652.86
2018-09-03T06:43:00.657Z,94645.41
2018-09-03T06:45:29.344Z,94644.08
2018-09-03T06:47:58.187Z,94644.05
2018-09-03T06:50:27.882Z,94647.83
2018-09-03T06:52:56.729Z,94644.15
2018-09-03T06:55:25.519Z,94644.15
2018-09-03T06:57:54.282Z,94648.77
2018-09-03T07:00:23.005Z,94648.61
2018-09-03T07:02:51.815Z,94646.60
2018-09-03T07:05:20.677Z,94647.52
2018-09-03T07:07:49.495Z,94650.80
2018-09-03T07:10:18.390Z,94647.75
2018-09-03T07:12:47.117Z,94650.45
2018-09-03T07:15:15.916Z,94646.22
2018-09-03T07:17:44.604Z,94639.61
2018-09-03T07:20:13.283Z,94637.49
2018-09-03T07:22:42.077Z,94635.10
2018-09-03T07:25:10.903Z,94637.22
2018-09-03T07:27:40.044Z,94647.35
2018-09-03T07:30:08.946Z,94640.69
2018-09-03T07:32:38.123Z,94639.08
2018-09-03T07:35:06.902Z,94640.15
2018-09-03T07:37:35.788Z,94636.14
2018-09-03T07:40:04.783Z,94643.34
2018-09-03T07:42:33.458Z,94642.27
2018-09-03T07:45:02.296Z,94638.55
2018-09-03T07:47:31.229Z,94641.20
2018-09-03T07:50:00.076Z,94631.87
2018-09-03T07:52:28.887Z,94629.97
2018-09-03T07:54:57.727Z,94633.97
2018-09-03T07:57:26.697Z,94632.89
2018-09-03T07:59:55.519Z,94633.11
2018-09-03T08:02:25.008Z,94624.78
2018-09-03T08:04:53.793Z,94625.34
2018-09-03T08:07:22.618Z,94621.81
2018-09-03T08:09:51.388Z,94618.50
2018-09-03T08:12:20.121Z,94617.84
2018-09-03T08:14:48.908Z,94614.39
2018-09-03T08:17:17.717Z,94615.59
2018-09-03T08:19:46.566Z,94608.61
2018-09-03T08:22:15.370Z,94607.98
2018-09-03T08:24:44.152Z,94599.16
2018-09-03T08:27:12.884Z,94602.79
2018-09-03T08:29:41.632Z,94605.24
2018-09-03T08:32:10.557Z,94597.34
2018-09-03T08:34:39.305Z,94597.54
2018-09-03T08:37:08.169Z,94592.70
2018-09-03T08:39:36.930Z,94583.39
2018-09-03T08:42:06.088Z,94575.80
2018-09-03T08:44:34.793Z,94567.57
2018-09-03T08:47:03.659Z,94564.11
2018-09-03T08:49:32.580Z,94560.17
2018-09-03T08:52:01.451Z,94561.70
2018-09-03T08:54:30.271Z,94567.36
2018-09-03T08:57:00.217Z,94564.09
2018-09-03T08:59:28.909Z,94561.91
2018-09-03T09:01:57.667Z,94554.87
2018-09-03T09:04:26.613Z,94559.08
2018-09-03T09:06:55.358Z,94556.53
2018-09-03T09:09:24.043Z,94553.20
2018-09-03T09:11:52.831Z,94548.97
2018-09-03T09:14:21.751Z,94545.33
2018-09-03T09:16:50.481Z,94541.91
2018-09-03T09:19:19.360Z,94539.31
2018-09-03T09:22:18.843Z,94539.31
2018-09-03T09:24:47.591Z,94524.39
2018-09-03T09:27:16.423Z,94526.88
2018-09-03T09:29:45.650Z,94520.76
2018-09-03T09:32:14.514Z,94521.55
2018-09-03T09:34:43.380Z,94522.53
2018-09-03T09:37:15.058Z,94519.47
2018-09-03T09:39:44.266Z,94516.27
2018-09-03T09:42:13.020Z,94517.19
2018-09-03T09:44:41.775Z,94509.67
2018-09-03T09:47:10.583Z,94509.77
2018-09-03T09:49:39.368Z,94497.66
2018-09-03T09:52:08.146Z,94500.70
2018-09-03T09:54:36.901Z,94496.78
2018-09-03T09:57:05.903Z,94489.15
2018-09-03T09:59:34.754Z,94489.02
2018-09-03T10:02:03.560Z,94484.81
2018-09-03T10:04:32.295Z,94477.17
2018-09-03T10:07:01.212Z,94476.91
2018-09-03T10:09:30.111Z,94479.17
2018-09-03T10:11:58.859Z,94473.70
2018-09-03T10:14:27.654Z,94472.17
2018-09-03T10:16:56.427Z,94471.01
2018-09-03T10:19:25.265Z,94470.34
2018-09-03T10:21:54.061Z,94477.06
2018-09-03T10:24:22.762Z,94473.15
2018-09-03T10:26:51.463Z,94459.45
2018-09-03T10:29:20.217Z,94460.60
2018-09-03T10:31:48.893Z,94452.03
2018-09-03T10:34:17.539Z,94444.45
2018-09-03T10:36:46.224Z,94447.31
2018-09-03T10:39:14.885Z,94438.42
2018-09-03T10:41:43.590Z,94442.91
2018-09-03T10:44:12.277Z,94438.11
2018-09-03T10:46:41.058Z,94431.78
2018-09-03T10:49:09.735Z,94430.23
2018-09-03T10:51:38.554Z,94424.45
2018-09-03T10:54:07.178Z,94423.42
2018-09-03T10:56:35.858Z,94420.61
2018-09-03T10:59:04.587Z,94423.41
2018-09-03T11:01:33.286Z,94415.55
2018-09-03T11:04:02.015Z,94412.83
2018-09-03T11:06:30.706Z,94412.98
2018-09-03T11:08:59.482Z,94416.14
2018-09-03T11:11:28.251Z,94413.64
2018-09-03T11:13:56.967Z,94413.14
2018-09-03T11:16:25.711Z,94413.39
2018-09-03T11:18:54.393Z,94415.63
2018-09-03T11:21:23.300Z,94416.17
2018-09-03T11:23:51.856Z,94403.55
2018-09-03T11:26:20.594Z,94403.66
2018-09-03T11:28:49.301Z,94395.16
2018-09-03T11:31:18.112Z,94394.78
2018-09-03T11:33:46.819Z,94396.53
2018-09-03T11:36:15.576Z,94393.32
2018-09-03T11:38:44.267Z,94394.09
2018-09-03T11:41:13.003Z,94389.95
2018-09-03T11:43:41.780Z,94389.19
2018-09-03T11:46:10.457Z,94395.33
2018-09-03T11:48:39.248Z,94397.94
2018-09-03T11:51:07.963Z,94392.27
2018-09-03T11:53:36.822Z,94394.79
2018-09-03T11:56:05.576Z,94399.95
2018-09-03T11:58:34.358Z,94408.02
2018-09-03T12:01:03.214Z,94404.78
2018-09-03T12:03:31.942Z,94419.11
2018-09-03T12:06:00.781Z,94425.45
2018-09-03T12:08:29.524Z,94422.44
2018-09-03T12:10:58.196Z,94426.81
2018-09-03T12:13:26.933Z,94419.02
2018-09-03T12:16:11.533Z,94416.31
2018-09-03T12:18:42.134Z,94417.64
2018-09-03T12:21:11.534Z,94412.94
2018-09-03T12:23:40.602Z,94406.58
2018-09-03T12:26:09.720Z,94402.05
2018-09-03T12:28:38.525Z,94408.70
2018-09-03T12:31:07.644Z,94401.00
2018-09-03T12:33:36.321Z,94400.19
2018-09-03T12:36:05.705Z,94402.33
2018-09-03T12:38:34.789Z,94399.39
2018-09-03T12:41:03.727Z,94398.03
2018-09-03T12:43:32.537Z,94403.09
2018-09-03T12:46:03.545Z,94405.73
2018-09-03T12:48:32.786Z,94411.00
2018-09-03T12:51:02.343Z,94409.80
2018-09-03T12:53:31.749Z,94403.38
2018-09-03T12:56:00.659Z,94394.61
2018-09-03T12:58:29.415Z,94398.18
2018-09-03T13:00:58.175Z,94388.52
2018-09-03T13:03:26.826Z,94387.97
2018-09-03T13:05:55.635Z,94379.20
2018-09-03T13:08:24.371Z,94381.04
2018-09-03T13:10:53.046Z,94370.08
2018-09-03T13:13:21.814Z,94373.64
2018-09-03T13:15:50.533Z,94366.09
2018-09-03T13:18:19.282Z,94362.02
2018-09-03T13:20:47.971Z,94360.35
2018-09-03T13:23:16.761Z,94353.37
2018-09-03T13:25:45.475Z,94351.11
2018-09-03T13:28:14.196Z,94334.86
2018-09-03T13:30:42.942Z,94336.36
2018-09-03T13:33:11.641Z,94325.98
2018-09-03T13:35:40.289Z,94314.96
2018-09-03T13:38:09.000Z,94307.95
2018-09-03T13:40:38.426Z,94307.45
2018-09-03T13:43:07.617Z,94300.83
2018-09-03T13:45:36.655Z,94302.84
2018-09-03T13:48:05.411Z,94299.37
2018-09-03T13:50:34.275Z,94300.31
2018-09-03T13:53:03.041Z,94304.42
2018-09-03T13:55:31.684Z,94307.07
2018-09-03T13:58:00.453Z,94308.09
2018-09-03T14:00:29.126Z,94309.21
2018-09-03T14:02:57.893Z,94307.59
2018-09-03T14:05:26.598Z,94310.50
2018-09-03T14:07:55.299Z,94307.77
2018-09-03T14:10:23.973Z,94307.45
2018-09-03T14:12:52.625Z,94304.03
2018-09-03T14:15:21.326Z,94306.81
2018-09-03T14:17:50.102Z,94309.08
2018-09-03T14:20:18.841Z,94314.39
2018-09-03T14:22:47.614Z,94313.85
2018-09-03T14:25:16.358Z,94320.31
2018-09-03T14:27:45.063Z,94320.20
2018-09-03T14:30:13.773Z,94316.47
2018-09-03T14:32:42.464Z,94319.77
2018-09-03T14:35:11.202Z,94322.94
2018-09-03T14:37:39.878Z,94326.19
2018-09-03T14:40:08.662Z,94324.31
2018-09-03T14:42:37.442Z,94323.53
2018-09-03T14:45:06.439Z,94321.13
2018-09-03T14:47:35.198Z,94316.55
2018-09-03T14:50:03.959Z,94313.32
2018-09-03T14:52:32.642Z,94313.84
2018-09-03T14:55:01.277Z,94313.33
2018-09-03T14:57:29.954Z,94313.20
2018-09-03T14:59:58.770Z,94304.16
2018-09-03T15:02:27.515Z,94300.13
2018-09-03T15:04:56.133Z,94294.98
2018-09-03T15:07:24.787Z,94293.59
2018-09-03T15:10:24.535Z,94308.48
2018-09-03T15:12:53.225Z,94297.98
2018-09-03T15:15:21.867Z,94302.02
2018-09-03T15:17:50.622Z,94308.13
2018-09-03T15:20:19.328Z,94306.89
2018-09-03T15:25:14.709Z,94300.59
2018-09-03T15:27:43.419Z,94292.86
2018-09-03T15:30:12.210Z,94288.92
2018-09-03T15:32:41.005Z,94299.31
2018-09-03T15:35:09.734Z,94304.98
2018-09-03T15:37:38.707Z,94312.58
2018-09-03T15:40:07.441Z,94308.36
2018-09-03T15:42:36.151Z,94297.79
2018-09-03T15:45:04.900Z,94299.67
2018-09-03T15:47:33.664Z,94302.56
2018-09-03T15:50:02.415Z,94305.83
2018-09-03T15:52:31.296Z,94301.33
2018-09-03T15:55:00.027Z,94309.58
2018-09-03T15:57:28.737Z,94310.38
2018-09-03T15:59:57.437Z,94319.41
2018-09-03T16:02:29.227Z,94325.02
2018-09-03T16:04:58.057Z,94324.20
2018-09-03T16:07:26.738Z,94337.75
2018-09-03T16:09:55.418Z,94339.32
2018-09-03T16:12:24.184Z,94342.89
2018-09-03T16:14:52.877Z,94341.42
2018-09-03T16:17:21.571Z,94346.81
2018-09-03T16:19:50.274Z,94342.39
2018-09-03T16:22:19.052Z,94340.77
2018-09-03T16:24:47.825Z,94350.70
2018-09-03T16:27:16.680Z,94363.59
2018-09-03T16:29:45.374Z,94370.19
2018-09-03T16:32:14.061Z,94373.11
2018-09-03T16:34:44.057Z,94376.45
2018-09-03T16:37:12.779Z,94392.27
2018-09-03T16:39:41.499Z,94389.64
2018-09-03T16:42:10.193Z,94379.82
2018-09-03T16:44:38.914Z,94367.19
2018-09-03T16:47:08.061Z,94363.07
2018-09-03T16:49:36.767Z,94371.32
2018-09-03T16:52:05.476Z,94372.92
2018-09-03T16:54:34.278Z,94374.53
2018-09-03T16:57:02.986Z,94372.45
2018-09-03T16:59:31.673Z,94361.11
2018-09-03T17:02:00.445Z,94359.23
2018-09-03T17:04:29.206Z,94362.93
2018-09-03T17:06:58.029Z,94364.22
2018-09-03T17:09:26.725Z,94364.38
2018-09-03T17:11:55.402Z,94361.55
2018-09-03T17:14:24.059Z,94347.02
2018-09-03T17:16:52.771Z,94348.58
2018-09-03T17:19:21.455Z,94341.73
2018-09-03T17:21:50.148Z,94346.77
2018-09-03T17:24:18.818Z,94348.30
2018-09-03T17:26:47.544Z,94339.67
2018-09-03T17:29:16.284Z,94336.96
2018-09-03T17:31:45.951Z,94337.31
2018-09-03T17:34:14.661Z,94335.36
2018-09-03T17:36:43.373Z,94331.31
2018-09-03T17:39:12.077Z,94339.98
2018-09-03T17:41:40.757Z,94342.66
2018-09-03T17:44:09.482Z,94355.55
2018-09-03T17:46:38.222Z,94346.30
2018-09-03T17:49:06.978Z,94336.53
2018-09-03T17:51:35.711Z,94338.72
2018-09-03T17:54:04.480Z,94346.98
2018-09-03T18:01:09.914Z,94356.73
2018-09-03T18:03:38.806Z,94363.06
2018-09-03T18:06:07.649Z,94356.93
2018-09-03T18:08:36.471Z,94348.00
2018-09-03T18:11:05.392Z,94349.27
2018-09-03T18:13:34.140Z,94359.03
2018-09-03T18:16:02.905Z,94352.76
2018-09-03T18:18:31.586Z,94353.67
2018-09-03T18:21:00.604Z,94359.52
2018-09-03T18:23:29.413Z,94362.48
2018-09-03T18:25:58.123Z,94372.83
2018-09-03T18:28:26.847Z,94374.81
2018-09-03T18:30:55.542Z,94374.91
2018-09-03T18:33:24.246Z,94371.70
2018-09-03T18:35:53.013Z,94367.73
2018-09-03T18:38:21.688Z,94356.98
2018-09-03T18:40:50.405Z,94353.30
2018-09-03T18:43:19.147Z,94354.34
2018-09-03T18:45:48.368Z,94360.05
2018-09-03T18:48:17.082Z,94355.35
2018-09-03T18:50:46.166Z,94348.79
2018-09-03T18:53:14.839Z,94354.08
2018-09-03T18:55:43.660Z,94358.08
2018-09-03T18:58:13.327Z,94354.41
2018-09-03T19:00:42.070Z,94353.11
2018-09-03T19:03:11.324Z,94356.52
2018-09-03T19:05:40.094Z,94376.66
2018-09-03T19:08:08.823Z,94386.49
2018-09-03T19:10:37.563Z,94393.27
2018-09-03T19:13:06.310Z,94414.19
2018-09-03T19:15:34.986Z,94419.99
2018-09-03T19:18:03.643Z,94427.34
2018-09-03T19:20:32.298Z,94417.98
2018-09-03T19:23:01.016Z,94414.30
2018-09-03T19:25:30.171Z,94409.56
2018-09-03T19:27:58.885Z,94420.47
2018-09-03T19:30:27.640Z,94410.05
2018-09-03T19:32:56.339Z,94407.39
2018-09-03T19:35:25.064Z,94419.59
2018-09-03T19:37:53.838Z,94415.05
2018-09-03T19:40:22.526Z,94415.23
2018-09-03T19:42:51.246Z,94414.80
2018-09-03T19:45:19.994Z,94409.62
2018-09-03T19:47:48.925Z,94418.53
2018-09-03T19:50:17.731Z,94417.66
2018-09-03T19:52:46.363Z,94422.93
2018-09-03T19:55:15.069Z,94437.31
2018-09-03T19:57:43.756Z,94442.34
2018-09-03T20:00:18.794Z,94449.23
2018-09-03T20:02:47.447Z,94462.28
2018-09-03T20:05:16.276Z,94439.28
2018-09-03T20:07:45.082Z,94436.50
2018-09-03T20:10:13.795Z,94433.73
2018-09-03T20:12:42.578Z,94419.48
2018-09-03T20:15:14.237Z,94409.93
2018-09-03T20:17:43.125Z,94418.89
2018-09-03T20:20:11.898Z,94417.69
2018-09-03T20:22:40.652Z,94426.25
2018-09-03T20:25:09.399Z,94426.48
2018-09-03T20:27:38.194Z,94434.26
2018-09-03T20:30:07.094Z,94435.28
2018-09-03T20:32:35.782Z,94450.06
2018-09-03T20:35:04.499Z,94457.16
2018-09-03T20:37:33.171Z,94470.48
2018-09-03T20:40:01.971Z,94477.30
2018-09-03T20:46:02.338Z,94486.03
2018-09-03T20:48:31.188Z,94493.64
2018-09-03T20:51:00.097Z,94480.40
2018-09-03T20:53:28.880Z,94471.86
2018-09-03T20:55:57.627Z,94465.95
2018-09-03T20:58:26.418Z,94463.68
2018-09-03T21:00:55.211Z,94450.39
2018-09-03T21:03:24.019Z,94444.48
2018-09-03T21:05:52.787Z,94447.02
2018-09-03T21:08:21.764Z,94449.61
2018-09-03T21:10:50.474Z,94446.05
2018-09-03T21:13:19.235Z,94437.97
2018-09-03T21:15:47.935Z,94425.58
2018-09-03T21:18:16.704Z,94428.10
2018-09-03T21:20:45.522Z,94426.73
2018-09-03T21:23:14.276Z,94440.86
2018-09-03T21:25:43.087Z,94450.55
2018-09-03T21:28:11.781Z,94441.14
2018-09-03T21:30:40.616Z,94442.30
2018-09-03T21:33:09.415Z,94444.43
2018-09-03T21:35:38.135Z,94452.03
2018-09-03T21:38:06.969Z,94451.80
2018-09-03T21:40:35.633Z,94440.77
2018-09-03T21:43:04.761Z,94435.69
2018-09-03T21:45:33.502Z,94430.41
2018-09-03T21:48:02.200Z,94431.44
2018-09-03T21:50:30.913Z,94441.21
2018-09-03T21:52:59.572Z,94443.00
2018-09-03T21:55:28.279Z,94444.95
2018-09-03T21:57:57.096Z,94441.73
2018-09-03T22:00:25.865Z,94436.77
2018-09-03T22:02:54.536Z,94432.28
2018-09-03T22:05:23.293Z,94429.77
2018-09-03T22:07:52.071Z,94425.77
2018-09-03T22:10:20.787Z,94420.32
2018-09-03T22:12:49.440Z,94414.27
2018-09-03T22:15:18.152Z,94418.42
2018-09-03T22:17:46.856Z,94411.36
2018-09-03T22:20:15.734Z,94421.40
2018-09-03T22:22:44.458Z,94423.36
2018-09-03T22:25:13.322Z,94420.88
2018-09-03T22:27:42.174Z,94417.80
2018-09-03T22:30:11.035Z,94412.64
2018-09-03T22:32:39.842Z,94414.07
2018-09-03T22:35:08.618Z,94405.11
2018-09-03T22:37:37.259Z,94403.35
2018-09-03T22:40:06.860Z,94397.11
2018-09-03T22:42:35.617Z,94399.22
2018-09-03T22:45:04.318Z,94401.56
2018-09-03T22:47:33.020Z,94395.16
2018-09-03T22:50:01.833Z,94384.33
2018-09-03T22:52:30.557Z,94377.50
2018-09-03T22:54:59.340Z,94368.08
2018-09-03T22:57:28.136Z,94374.61
2018-09-03T22:59:56.822Z,94381.82
2018-09-03T23:02:25.725Z,94373.81
2018-09-03T23:04:54.377Z,94375.08
2018-09-03T23:07:23.134Z,94374.49
2018-09-03T23:09:51.791Z,94382.05
2018-09-03T23:12:20.503Z,94386.09
2018-09-03T23:14:49.178Z,94376.18
2018-09-03T23:17:17.862Z,94378.48
2018-09-03T23:19:46.594Z,94371.20
2018-09-03T23:22:15.236Z,94375.79
2018-09-03T23:24:44.120Z,94373.74
2018-09-03T23:27:12.819Z,94368.00
2018-09-03T23:29:41.528Z,94363.52
2018-09-03T23:32:10.332Z,94370.11
2018-09-03T23:34:39.039Z,94372.88
2018-09-03T23:37:07.735Z,94370.59
2018-09-03T23:39:36.480Z,94372.09
2018-09-03T23:42:05.303Z,94373.33
2018-09-03T23:44:34.082Z,94372.74
2018-09-03T23:47:02.824Z,94371.42
2018-09-03T23:49:31.491Z,94369.61
2018-09-03T23:52:00.215Z,94373.99
2018-09-03T23:54:28.988Z,94372.44
2018-09-03T23:56:57.645Z,94365.03
2018-09-03T23:59:26.286Z,94365.66
